createdAt,value
2022-11-11T00:04:42.478Z,100.00
2022-11-11T00:09:43.960Z,100.00
2022-11-11T00:14:45.526Z,100.00
2022-11-11T00:20:05.488Z,100.00
2022-11-11T00:25:07.845Z,100.00
2022-11-11T00:30:09.993Z,100.00
2022-11-11T00:35:30.447Z,100.00
2022-11-11T00:40:31.934Z,100.00
2022-11-11T00:45:33.443Z,100.00
2022-11-11T00:50:53.634Z,100.00
2022-11-11T00:55:56.583Z,100.00
2022-11-11T01:00:58.095Z,100.00
2022-11-11T01:06:04.531Z,100.00
2022-11-11T01:11:14.759Z,100.00
2022-11-11T01:16:23.446Z,100.00
2022-11-11T01:21:26.071Z,100.00
2022-11-11T01:26:31.442Z,100.00
2022-11-11T01:31:33.460Z,100.00
2022-11-11T01:36:35.069Z,100.00
2022-11-11T01:41:38.264Z,100.00
2022-11-11T01:47:04.361Z,100.00
2022-11-11T01:52:18.320Z,100.00
2022-11-11T01:57:27.750Z,100.00
2022-11-11T02:03:09.747Z,100.00
2022-11-11T02:08:32.639Z,100.00
2022-11-11T02:13:57.406Z,100.00
2022-11-11T02:18:58.953Z,100.00
2022-11-11T02:24:11.115Z,100.00
2022-11-11T02:29:16.977Z,100.00
2022-11-11T02:34:18.456Z,100.00
2022-11-11T02:39:27.184Z,100.00
2022-11-11T02:44:33.326Z,100.00
2022-11-11T02:49:35.021Z,100.00
2022-11-11T02:54:36.576Z,100.00
2022-11-11T02:59:40.546Z,100.00
2022-11-11T03:04:42.319Z,100.00
2022-11-11T03:09:43.810Z,100.00
2022-11-11T03:14:45.518Z,100.00
2022-11-11T03:19:47.240Z,100.00
2022-11-11T03:25:07.126Z,100.00
2022-11-11T03:30:09.062Z,100.00
2022-11-11T03:35:10.525Z,100.00
2022-11-11T03:40:12.381Z,100.00
2022-11-11T03:45:13.839Z,100.00
2022-11-11T03:50:15.302Z,100.00
2022-11-11T03:55:16.869Z,100.00
2022-11-11T04:00:21.893Z,100.00
2022-11-11T04:05:41.712Z,100.00
2022-11-11T04:10:43.231Z,100.00
2022-11-11T04:16:03.427Z,100.00
2022-11-11T04:21:23.145Z,100.00
2022-11-11T04:26:24.643Z,100.00
2022-11-11T04:31:26.153Z,100.00
2022-11-11T04:36:27.658Z,100.00
2022-11-11T04:41:53.682Z,100.00
2022-11-11T04:46:50.502Z,100.00
2022-11-11T04:52:12.417Z,100.00
2022-11-11T04:57:13.920Z,100.00
2022-11-11T05:02:34.146Z,100.00
2022-11-11T05:08:07.923Z,100.00
2022-11-11T05:13:27.907Z,100.00
2022-11-11T05:19:02.296Z,100.00
2022-11-11T05:24:22.629Z,100.00
2022-11-11T05:29:24.096Z,100.00
2022-11-11T05:34:25.576Z,100.00
2022-11-11T05:39:27.053Z,100.00
2022-11-11T05:44:28.560Z,100.00
2022-11-11T05:49:30.442Z,100.00
2022-11-11T05:54:31.963Z,100.00
2022-11-11T05:59:33.640Z,100.00
2022-11-11T06:04:35.999Z,100.00
2022-11-11T06:09:37.442Z,100.00
2022-11-11T06:14:38.992Z,100.00
2022-11-11T06:19:40.495Z,100.00
2022-11-11T06:24:41.957Z,100.00
2022-11-11T06:29:43.451Z,100.00
2022-11-11T06:34:44.902Z,100.00
2022-11-11T06:39:46.398Z,100.00
2022-11-11T06:44:47.867Z,100.00
2022-11-11T06:49:49.325Z,100.00
2022-11-11T06:54:50.793Z,100.00
2022-11-11T06:59:52.283Z,100.00
2022-11-11T07:04:53.838Z,100.00
2022-11-11T07:09:55.843Z,100.00
2022-11-11T07:14:57.338Z,100.00
2022-11-11T07:19:58.922Z,100.00
2022-11-11T07:25:00.491Z,100.00
2022-11-11T07:30:01.972Z,100.00
2022-11-11T07:35:04.414Z,100.00
2022-11-11T07:40:06.682Z,100.00
2022-11-11T07:45:10.494Z,100.00
2022-11-11T07:50:12.871Z,100.00
2022-11-11T07:55:15.200Z,100.00
2022-11-11T08:00:17.164Z,100.00
2022-11-11T08:05:19.298Z,100.00
2022-11-11T08:10:20.850Z,100.00
2022-11-11T08:15:22.434Z,100.00
2022-11-11T08:20:23.963Z,100.00
2022-11-11T08:25:26.304Z,100.00
2022-11-11T08:30:28.023Z,100.00
2022-11-11T08:35:30.443Z,100.00
2022-11-11T08:40:31.930Z,100.00
2022-11-11T08:45:33.709Z,100.00
2022-11-11T08:50:35.177Z,100.00
2022-11-11T08:55:37.762Z,100.00
2022-11-11T09:00:39.560Z,100.00
2022-11-11T09:05:41.638Z,100.00
2022-11-11T09:10:43.293Z,98.90
2022-11-11T09:15:44.951Z,97.80
2022-11-11T09:20:46.573Z,97.54
2022-11-11T09:25:48.744Z,96.32
2022-11-11T09:30:50.407Z,96.19
2022-11-11T09:35:52.016Z,95.32
2022-11-11T09:41:10.149Z,96.04
2022-11-11T09:46:36.723Z,95.51
2022-11-11T09:51:44.414Z,95.44
2022-11-11T09:56:46.509Z,95.69
2022-11-11T10:01:54.063Z,96.04
2022-11-11T10:07:03.516Z,94.96
2022-11-11T10:12:14.328Z,94.09
2022-11-11T10:17:40.885Z,93.55
2022-11-11T10:22:43.398Z,94.81
2022-11-11T10:27:47.471Z,95.06
2022-11-11T10:32:59.589Z,93.95
2022-11-11T10:38:09.899Z,93.35
2022-11-11T10:43:31.672Z,94.58
2022-11-11T10:48:51.261Z,96.27
2022-11-11T10:54:03.344Z,97.10
2022-11-11T10:59:14.171Z,97.49
2022-11-11T11:04:29.062Z,96.57
2022-11-11T11:09:42.054Z,95.00
2022-11-11T11:14:47.918Z,96.67
2022-11-11T11:20:19.651Z,93.51
2022-11-11T11:25:22.311Z,92.58
2022-11-11T11:30:26.437Z,91.24
2022-11-11T11:35:40.693Z,92.02
2022-11-11T11:40:59.304Z,94.24
2022-11-11T11:46:08.402Z,94.71
2022-11-11T11:51:34.090Z,94.39
2022-11-11T11:56:42.502Z,93.64
2022-11-11T12:02:23.240Z,93.22
2022-11-11T12:07:50.145Z,93.53
2022-11-11T12:13:01.670Z,92.60
2022-11-11T12:18:22.925Z,91.96
2022-11-11T12:23:46.430Z,92.16
2022-11-11T12:28:53.702Z,94.07
2022-11-11T12:34:10.395Z,93.87
2022-11-11T12:39:26.592Z,94.34
2022-11-11T12:44:46.379Z,94.37
2022-11-11T12:50:08.595Z,93.64
2022-11-11T12:55:16.324Z,93.84
2022-11-11T13:00:20.524Z,94.41
2022-11-11T13:05:27.848Z,93.64
2022-11-11T13:10:52.752Z,93.79
2022-11-11T13:15:56.480Z,93.40
2022-11-11T13:21:07.134Z,95.00
2022-11-11T13:26:25.780Z,95.92
2022-11-11T13:31:27.432Z,97.58
2022-11-11T13:36:32.000Z,99.19
2022-11-11T13:41:38.265Z,99.02
2022-11-11T13:46:48.569Z,98.61
2022-11-11T13:51:59.527Z,98.71
2022-11-11T13:57:21.195Z,98.85
2022-11-11T14:02:22.795Z,99.55
2022-11-11T14:07:48.855Z,100.00
2022-11-11T14:12:52.484Z,99.88
2022-11-11T14:17:54.213Z,99.89
2022-11-11T14:23:15.827Z,99.78
2022-11-11T14:28:26.826Z,100.00
2022-11-11T14:33:38.579Z,100.00
2022-11-11T14:38:57.410Z,100.00
2022-11-11T14:44:27.911Z,100.00
2022-11-11T14:49:54.367Z,100.00
2022-11-11T14:54:59.033Z,100.00
2022-11-11T15:00:03.586Z,100.00
2022-11-11T15:05:15.067Z,100.00
2022-11-11T15:10:25.679Z,100.00
2022-11-11T15:15:39.723Z,100.00
2022-11-11T15:20:58.015Z,100.00
2022-11-11T15:26:09.464Z,100.00
2022-11-11T15:31:32.212Z,100.00
2022-11-11T15:36:57.563Z,100.00
2022-11-11T15:41:59.329Z,100.00
2022-11-11T15:47:01.628Z,100.00
2022-11-11T15:52:04.047Z,100.00
2022-11-11T15:57:35.187Z,100.00
2022-11-11T16:02:36.723Z,100.00
2022-11-11T16:07:43.357Z,100.00
2022-11-11T16:12:53.585Z,100.00
2022-11-11T16:18:00.232Z,100.00
2022-11-11T16:23:07.033Z,100.00
2022-11-11T16:28:12.089Z,100.00
2022-11-11T16:33:39.740Z,100.00
2022-11-11T16:38:41.286Z,100.00
2022-11-11T16:43:43.201Z,100.00
2022-11-11T16:48:48.570Z,100.00
2022-11-11T16:54:08.232Z,100.00
2022-11-11T16:59:16.474Z,100.00
2022-11-11T17:04:17.989Z,100.00
2022-11-11T17:09:36.996Z,100.00
2022-11-11T17:14:39.152Z,100.00
2022-11-11T17:19:40.656Z,100.00
2022-11-11T17:24:42.964Z,100.00
2022-11-11T17:29:44.517Z,100.00
2022-11-11T17:34:46.115Z,100.00
2022-11-11T17:39:47.667Z,100.00
2022-11-11T17:44:49.109Z,100.00
2022-11-11T17:49:56.537Z,100.00
2022-11-11T17:54:58.878Z,100.00
2022-11-11T18:00:00.372Z,100.00
2022-11-11T18:05:01.875Z,100.00
2022-11-11T18:10:03.792Z,100.00
2022-11-11T18:15:06.405Z,100.00
2022-11-11T18:20:08.767Z,100.00
2022-11-11T18:25:11.533Z,100.00
2022-11-11T18:30:13.122Z,100.00
2022-11-11T18:35:14.857Z,100.00
2022-11-11T18:40:16.447Z,100.00
2022-11-11T18:45:18.480Z,100.00
2022-11-11T18:50:19.982Z,100.00
2022-11-11T18:55:21.472Z,100.00
2022-11-11T19:00:22.932Z,100.00
2022-11-11T19:05:24.459Z,100.00
2022-11-11T19:10:26.009Z,100.00
2022-11-11T19:15:27.557Z,100.00
2022-11-11T19:20:29.044Z,100.00
2022-11-11T19:25:32.867Z,100.00
2022-11-11T19:30:35.353Z,100.00
2022-11-11T19:35:36.838Z,100.00
2022-11-11T19:40:38.387Z,100.00
2022-11-11T19:45:39.924Z,100.00
2022-11-11T19:50:42.089Z,100.00
2022-11-11T19:55:43.926Z,100.00
2022-11-11T20:00:47.458Z,100.00
2022-11-11T20:05:49.214Z,100.00
2022-11-11T20:10:50.668Z,100.00
2022-11-11T20:15:52.151Z,100.00
2022-11-11T20:21:00.296Z,100.00
2022-11-11T20:26:05.404Z,100.00
2022-11-11T20:31:09.132Z,100.00
2022-11-11T20:36:13.303Z,100.00
2022-11-11T20:41:17.696Z,100.00
2022-11-11T20:46:20.306Z,100.00
2022-11-11T20:51:24.726Z,100.00
2022-11-11T20:56:26.754Z,100.00
2022-11-11T21:01:29.003Z,100.00
2022-11-11T21:06:30.789Z,100.00
2022-11-11T21:11:32.283Z,100.00
2022-11-11T21:16:33.901Z,100.00
2022-11-11T21:21:35.681Z,100.00
2022-11-11T21:26:37.803Z,100.00
2022-11-11T21:31:40.139Z,100.00
2022-11-11T21:36:42.879Z,100.00
2022-11-11T21:41:44.348Z,100.00
2022-11-11T21:46:45.881Z,100.00
2022-11-11T21:51:48.394Z,100.00
2022-11-11T21:56:49.871Z,100.00
2022-11-11T22:01:51.410Z,100.00
2022-11-11T22:06:52.960Z,100.00
2022-11-11T22:11:54.482Z,100.00
2022-11-11T22:16:55.937Z,100.00
2022-11-11T22:21:57.399Z,100.00
2022-11-11T22:26:59.327Z,100.00
2022-11-11T22:32:00.887Z,100.00
2022-11-11T22:37:03.096Z,100.00
2022-11-11T22:42:04.554Z,100.00
2022-11-11T22:47:06.030Z,100.00
2022-11-11T22:52:07.535Z,100.00
2022-11-11T22:57:09.059Z,100.00
2022-11-11T23:02:10.598Z,100.00
2022-11-11T23:07:12.222Z,100.00
2022-11-11T23:12:13.745Z,100.00
2022-11-11T23:17:15.212Z,100.00
2022-11-11T23:22:16.688Z,100.00
2022-11-11T23:27:18.462Z,100.00
2022-11-11T23:32:19.900Z,100.00
2022-11-11T23:37:21.328Z,100.00
2022-11-11T23:42:22.790Z,100.00
2022-11-11T23:47:24.222Z,100.00
2022-11-11T23:52:25.661Z,100.00
2022-11-11T23:57:27.227Z,100.00
